sensor_id;sensor_type;location;lat;lon;timestamp;pressure;altitude;pressure_sealevel;temperature;humidity
75913;BME280;64592;52.168;21.040;2023-03-23T00:01:31;99738.81;;;9.52;77.49
75913;BME280;64592;52.168;21.040;2023-03-23T00:06:37;99739.06;;;9.49;77.58
75913;BME280;64592;52.168;21.040;2023-03-23T00:11:38;99737.72;;;9.44;77.86
75913;BME280;64592;52.168;21.040;2023-03-23T00:16:42;99726.63;;;9.37;78.51
75913;BME280;64592;52.168;21.040;2023-03-23T00:21:45;99732.59;;;9.29;78.23
75913;BME280;64592;52.168;21.040;2023-03-23T00:26:48;99734.19;;;9.21;78.65
75913;BME280;64592;52.168;21.040;2023-03-23T00:31:53;99724.78;;;9.15;78.70
75913;BME280;64592;52.168;21.040;2023-03-23T00:36:56;99720.50;;;9.13;78.93
75913;BME280;64592;52.168;21.040;2023-03-23T00:41:58;99713.28;;;9.13;79.37
75913;BME280;64592;52.168;21.040;2023-03-23T00:47:03;99711.47;;;9.14;79.49
75913;BME280;64592;52.168;21.040;2023-03-23T00:52:05;99709.50;;;9.16;79.57
75913;BME280;64592;52.168;21.040;2023-03-23T00:57:07;99711.13;;;9.18;79.62
75913;BME280;64592;52.168;21.040;2023-03-23T01:02:11;99696.44;;;9.22;79.31
75913;BME280;64592;52.168;21.040;2023-03-23T01:07:13;99690.66;;;9.27;79.04
75913;BME280;64592;52.168;21.040;2023-03-23T01:12:18;99695.81;;;9.30;78.52
75913;BME280;64592;52.168;21.040;2023-03-23T01:17:21;99686.88;;;9.29;78.83
75913;BME280;64592;52.168;21.040;2023-03-23T01:22:23;99684.53;;;9.36;78.39
75913;BME280;64592;52.168;21.040;2023-03-23T01:27:25;99685.28;;;9.38;78.36
75913;BME280;64592;52.168;21.040;2023-03-23T01:32:28;99695.06;;;9.39;79.03
75913;BME280;64592;52.168;21.040;2023-03-23T01:37:30;99693.25;;;9.40;78.66
75913;BME280;64592;52.168;21.040;2023-03-23T01:42:34;99689.69;;;9.39;78.85
75913;BME280;64592;52.168;21.040;2023-03-23T01:47:38;99693.47;;;9.37;78.29
75913;BME280;64592;52.168;21.040;2023-03-23T01:52:40;99692.63;;;9.36;78.51
75913;BME280;64592;52.168;21.040;2023-03-23T01:57:42;99692.72;;;9.34;79.19
75913;BME280;64592;52.168;21.040;2023-03-23T02:02:47;99678.56;;;9.32;79.38
75913;BME280;64592;52.168;21.040;2023-03-23T02:07:50;99671.72;;;9.28;79.15
75913;BME280;64592;52.168;21.040;2023-03-23T02:12:52;99670.00;;;9.27;78.90
75913;BME280;64592;52.168;21.040;2023-03-23T02:18:01;99660.38;;;9.25;79.00
75913;BME280;64592;52.168;21.040;2023-03-23T02:23:17;99661.22;;;9.25;79.56
75913;BME280;64592;52.168;21.040;2023-03-23T02:28:37;99651.44;;;9.24;79.13
75913;BME280;64592;52.168;21.040;2023-03-23T02:33:49;99654.13;;;9.24;79.97
75913;BME280;64592;52.168;21.040;2023-03-23T02:38:59;99654.03;;;9.26;80.16
75913;BME280;64592;52.168;21.040;2023-03-23T02:44:03;99662.09;;;9.26;79.78
75913;BME280;64592;52.168;21.040;2023-03-23T02:49:10;99654.84;;;9.26;79.16
75913;BME280;64592;52.168;21.040;2023-03-23T02:54:15;99637.72;;;9.27;79.04
75913;BME280;64592;52.168;21.040;2023-03-23T02:59:18;99651.19;;;9.27;79.57
75913;BME280;64592;52.168;21.040;2023-03-23T03:04:22;99658.28;;;9.28;79.88
75913;BME280;64592;52.168;21.040;2023-03-23T03:09:31;99653.88;;;9.27;79.32
75913;BME280;64592;52.168;21.040;2023-03-23T03:14:39;99653.16;;;9.25;78.95
75913;BME280;64592;52.168;21.040;2023-03-23T03:19:46;99650.47;;;9.25;79.78
75913;BME280;64592;52.168;21.040;2023-03-23T03:24:50;99648.75;;;9.24;79.90
75913;BME280;64592;52.168;21.040;2023-03-23T03:29:58;99641.66;;;9.23;79.55
75913;BME280;64592;52.168;21.040;2023-03-23T03:35:03;99649.00;;;9.21;79.41
75913;BME280;64592;52.168;21.040;2023-03-23T03:40:09;99656.94;;;9.23;79.56
75913;BME280;64592;52.168;21.040;2023-03-23T03:45:14;99662.56;;;9.20;79.89
75913;BME280;64592;52.168;21.040;2023-03-23T03:50:17;99668.22;;;9.17;80.45
75913;BME280;64592;52.168;21.040;2023-03-23T03:55:20;99672.97;;;9.13;80.15
75913;BME280;64592;52.168;21.040;2023-03-23T04:00:22;99674.19;;;9.09;80.55
75913;BME280;64592;52.168;21.040;2023-03-23T04:05:25;99653.78;;;9.07;80.39
75913;BME280;64592;52.168;21.040;2023-03-23T04:10:30;99636.91;;;9.05;80.87
75913;BME280;64592;52.168;21.040;2023-03-23T04:15:33;99638.03;;;9.02;80.26
75913;BME280;64592;52.168;21.040;2023-03-23T04:20:36;99639.97;;;9.00;81.02
75913;BME280;64592;52.168;21.040;2023-03-23T04:25:38;99641.69;;;9.01;80.65
75913;BME280;64592;52.168;21.040;2023-03-23T04:30:42;99647.31;;;8.98;80.21
75913;BME280;64592;52.168;21.040;2023-03-23T04:35:46;99638.53;;;8.96;80.80
75913;BME280;64592;52.168;21.040;2023-03-23T04:40:50;99640.47;;;8.94;81.16
75913;BME280;64592;52.168;21.040;2023-03-23T04:45:53;99642.53;;;8.90;80.21
75913;BME280;64592;52.168;21.040;2023-03-23T04:50:57;99644.63;;;8.87;80.87
75913;BME280;64592;52.168;21.040;2023-03-23T04:56:00;99633.16;;;8.85;81.29
75913;BME280;64592;52.168;21.040;2023-03-23T05:01:02;99636.06;;;8.82;81.05
75913;BME280;64592;52.168;21.040;2023-03-23T05:06:07;99629.00;;;8.81;81.00
75913;BME280;64592;52.168;21.040;2023-03-23T05:11:09;99637.31;;;8.78;81.68
75913;BME280;64592;52.168;21.040;2023-03-23T05:16:11;99630.94;;;8.79;81.57
75913;BME280;64592;52.168;21.040;2023-03-23T05:21:14;99629.88;;;8.81;81.43
75913;BME280;64592;52.168;21.040;2023-03-23T05:26:15;99633.53;;;8.80;80.75
75913;BME280;64592;52.168;21.040;2023-03-23T05:31:17;99635.34;;;8.80;80.78
75913;BME280;64592;52.168;21.040;2023-03-23T05:36:21;99617.41;;;8.80;81.04
75913;BME280;64592;52.168;21.040;2023-03-23T05:41:23;99630.47;;;8.85;81.11
75913;BME280;64592;52.168;21.040;2023-03-23T05:46:25;99637.31;;;8.89;80.25
75913;BME280;64592;52.168;21.040;2023-03-23T05:51:28;99636.06;;;8.93;80.25
75913;BME280;64592;52.168;21.040;2023-03-23T05:56:31;99634.84;;;8.97;80.50
75913;BME280;64592;52.168;21.040;2023-03-23T06:01:32;99643.41;;;9.02;80.02
75913;BME280;64592;52.168;21.040;2023-03-23T06:06:35;99636.69;;;9.08;80.52
75913;BME280;64592;52.168;21.040;2023-03-23T06:11:37;99641.56;;;9.14;80.02
75913;BME280;64592;52.168;21.040;2023-03-23T06:16:39;99637.50;;;9.19;80.41
75913;BME280;64592;52.168;21.040;2023-03-23T06:21:42;99640.56;;;9.26;79.88
75913;BME280;64592;52.168;21.040;2023-03-23T06:26:44;99639.22;;;9.31;79.89
75913;BME280;64592;52.168;21.040;2023-03-23T06:31:48;99649.59;;;9.36;79.45
75913;BME280;64592;52.168;21.040;2023-03-23T06:36:54;99651.53;;;9.45;79.53
75913;BME280;64592;52.168;21.040;2023-03-23T06:41:57;99650.03;;;9.52;79.37
75913;BME280;64592;52.168;21.040;2023-03-23T06:46:59;99658.22;;;9.62;79.53
75913;BME280;64592;52.168;21.040;2023-03-23T06:52:04;99661.84;;;9.72;78.59
75913;BME280;64592;52.168;21.040;2023-03-23T06:57:07;99657.28;;;9.84;79.07
75913;BME280;64592;52.168;21.040;2023-03-23T07:02:09;99651.13;;;9.93;78.64
75913;BME280;64592;52.168;21.040;2023-03-23T07:07:13;99658.28;;;10.03;77.79
75913;BME280;64592;52.168;21.040;2023-03-23T07:12:14;99656.41;;;10.15;77.38
75913;BME280;64592;52.168;21.040;2023-03-23T07:17:16;99650.00;;;10.27;77.33
75913;BME280;64592;52.168;21.040;2023-03-23T07:22:20;99649.91;;;10.38;76.96
75913;BME280;64592;52.168;21.040;2023-03-23T07:27:22;99659.53;;;10.52;76.22
75913;BME280;64592;52.168;21.040;2023-03-23T07:32:24;99652.09;;;10.65;75.71
75913;BME280;64592;52.168;21.040;2023-03-23T07:37:27;99657.00;;;10.81;74.56
75913;BME280;64592;52.168;21.040;2023-03-23T07:42:29;99663.13;;;10.93;74.77
75913;BME280;64592;52.168;21.040;2023-03-23T07:47:31;99660.06;;;11.07;74.09
75913;BME280;64592;52.168;21.040;2023-03-23T07:52:34;99676.88;;;11.20;73.67
75913;BME280;64592;52.168;21.040;2023-03-23T07:57:37;99667.28;;;11.37;72.73
75913;BME280;64592;52.168;21.040;2023-03-23T08:02:39;99664.91;;;11.53;72.49
75913;BME280;64592;52.168;21.040;2023-03-23T08:07:43;99664.56;;;11.77;71.85
75913;BME280;64592;52.168;21.040;2023-03-23T08:12:45;99649.66;;;11.92;71.24
75913;BME280;64592;52.168;21.040;2023-03-23T08:17:47;99651.78;;;12.08;69.99
75913;BME280;64592;52.168;21.040;2023-03-23T08:22:55;99641.53;;;12.21;69.13
75913;BME280;64592;52.168;21.040;2023-03-23T08:27:57;99636.53;;;12.35;68.67
75913;BME280;64592;52.168;21.040;2023-03-23T08:32:59;99626.53;;;12.45;67.59
75913;BME280;64592;52.168;21.040;2023-03-23T08:38:03;99623.22;;;12.61;66.28
75913;BME280;64592;52.168;21.040;2023-03-23T08:43:05;99617.59;;;12.82;65.77
75913;BME280;64592;52.168;21.040;2023-03-23T08:48:07;99619.44;;;12.91;65.37
75913;BME280;64592;52.168;21.040;2023-03-23T08:53:11;99627.13;;;12.96;63.89
75913;BME280;64592;52.168;21.040;2023-03-23T08:58:13;99622.81;;;13.03;64.12
75913;BME280;64592;52.168;21.040;2023-03-23T09:03:14;99622.34;;;13.17;62.89
75913;BME280;64592;52.168;21.040;2023-03-23T09:08:19;99613.31;;;13.26;62.61
75913;BME280;64592;52.168;21.040;2023-03-23T09:13:21;99617.66;;;13.37;62.04
75913;BME280;64592;52.168;21.040;2023-03-23T09:18:23;99612.34;;;13.45;62.34
75913;BME280;64592;52.168;21.040;2023-03-23T09:23:26;99613.72;;;13.49;61.73
75913;BME280;64592;52.168;21.040;2023-03-23T09:28:29;99615.44;;;13.50;61.74
75913;BME280;64592;52.168;21.040;2023-03-23T09:33:32;99624.25;;;13.52;61.44
75913;BME280;64592;52.168;21.040;2023-03-23T09:38:38;99609.09;;;13.59;61.31
75913;BME280;64592;52.168;21.040;2023-03-23T09:43:53;99599.38;;;13.66;60.94
75913;BME280;64592;52.168;21.040;2023-03-23T09:49:00;99597.66;;;13.83;59.79
75913;BME280;64592;52.168;21.040;2023-03-23T09:54:06;99585.44;;;13.96;59.51
75913;BME280;64592;52.168;21.040;2023-03-23T09:59:17;99586.50;;;14.04;58.89
75913;BME280;64592;52.168;21.040;2023-03-23T10:04:37;99577.16;;;14.24;58.10
75913;BME280;64592;52.168;21.040;2023-03-23T10:09:40;99581.34;;;14.36;58.13
75913;BME280;64592;52.168;21.040;2023-03-23T10:14:55;99581.94;;;14.48;57.47
75913;BME280;64592;52.168;21.040;2023-03-23T10:20:14;99568.34;;;14.65;55.85
75913;BME280;64592;52.168;21.040;2023-03-23T10:25:23;99567.78;;;14.88;55.49
75913;BME280;64592;52.168;21.040;2023-03-23T10:30:30;99548.88;;;15.20;53.67
75913;BME280;64592;52.168;21.040;2023-03-23T10:35:37;99560.44;;;15.30;53.03
75913;BME280;64592;52.168;21.040;2023-03-23T10:40:48;99562.19;;;15.39;52.41
75913;BME280;64592;52.168;21.040;2023-03-23T10:45:55;99569.97;;;15.42;52.26
75913;BME280;64592;52.168;21.040;2023-03-23T10:51:02;99557.69;;;15.56;51.93
75913;BME280;64592;52.168;21.040;2023-03-23T10:56:21;99549.38;;;15.82;51.06
75913;BME280;64592;52.168;21.040;2023-03-23T11:01:29;99556.31;;;16.01;50.38
75913;BME280;64592;52.168;21.040;2023-03-23T11:06:33;99539.31;;;16.31;50.21
75913;BME280;64592;52.168;21.040;2023-03-23T11:11:41;99539.94;;;16.74;48.54
75913;BME280;64592;52.168;21.040;2023-03-23T11:16:45;99560.84;;;16.81;48.16
75913;BME280;64592;52.168;21.040;2023-03-23T11:21:49;99504.56;;;17.04;43.67
75913;BME280;64592;52.168;21.040;2023-03-23T11:26:55;99515.03;;;17.24;43.71
75913;BME280;64592;52.168;21.040;2023-03-23T11:32:04;99510.22;;;17.34;43.42
75913;BME280;64592;52.168;21.040;2023-03-23T11:37:09;99507.06;;;17.45;43.30
75913;BME280;64592;52.168;21.040;2023-03-23T11:42:21;99512.31;;;17.77;42.89
75913;BME280;64592;52.168;21.040;2023-03-23T11:47:28;99505.03;;;17.93;42.84
75913;BME280;64592;52.168;21.040;2023-03-23T11:52:39;99475.50;;;18.11;42.70
75913;BME280;64592;52.168;21.040;2023-03-23T11:57:44;99474.69;;;18.25;41.77
75913;BME280;64592;52.168;21.040;2023-03-23T12:08:36;99465.78;;;18.60;41.75
75913;BME280;64592;52.168;21.040;2023-03-23T12:13:58;99456.56;;;18.61;41.27
75913;BME280;64592;52.168;21.040;2023-03-23T12:19:10;99450.31;;;18.53;41.56
75913;BME280;64592;52.168;21.040;2023-03-23T12:24:25;99456.72;;;18.45;41.72
75913;BME280;64592;52.168;21.040;2023-03-23T12:29:43;99456.94;;;18.29;41.75
75913;BME280;64592;52.168;21.040;2023-03-23T12:34:50;99428.88;;;18.35;42.34
75913;BME280;64592;52.168;21.040;2023-03-23T12:40:09;99413.72;;;18.62;41.86
75913;BME280;64592;52.168;21.040;2023-03-23T12:45:27;99430.88;;;18.56;41.72
75913;BME280;64592;52.168;21.040;2023-03-23T12:50:33;99423.97;;;18.45;42.06
75913;BME280;64592;52.168;21.040;2023-03-23T12:55:42;99426.69;;;18.31;42.35
75913;BME280;64592;52.168;21.040;2023-03-23T13:00:57;99438.94;;;18.05;43.16
75913;BME280;64592;52.168;21.040;2023-03-23T13:06:05;99434.56;;;17.81;42.55
75913;BME280;64592;52.168;21.040;2023-03-23T13:11:13;99414.50;;;17.74;43.14
75913;BME280;64592;52.168;21.040;2023-03-23T13:16:24;99421.84;;;17.74;44.09
75913;BME280;64592;52.168;21.040;2023-03-23T13:21:30;99416.63;;;17.64;44.81
75913;BME280;64592;52.168;21.040;2023-03-23T13:26:37;99420.91;;;17.59;44.86
75913;BME280;64592;52.168;21.040;2023-03-23T13:31:41;99420.53;;;17.47;45.19
75913;BME280;64592;52.168;21.040;2023-03-23T13:36:51;99417.31;;;17.43;45.52
75913;BME280;64592;52.168;21.040;2023-03-23T13:42:05;99421.78;;;17.36;46.02
75913;BME280;64592;52.168;21.040;2023-03-23T13:47:28;99416.72;;;17.33;43.82
75913;BME280;64592;52.168;21.040;2023-03-23T13:52:38;99427.63;;;17.33;43.77
75913;BME280;64592;52.168;21.040;2023-03-23T13:57:50;99431.25;;;17.49;44.11
75913;BME280;64592;52.168;21.040;2023-03-23T14:03:00;99422.50;;;17.53;44.16
75913;BME280;64592;52.168;21.040;2023-03-23T14:08:11;99427.00;;;17.46;44.59
75913;BME280;64592;52.168;21.040;2023-03-23T14:13:19;99454.25;;;17.46;44.55
75913;BME280;64592;52.168;21.040;2023-03-23T14:18:26;99459.59;;;17.39;45.13
75913;BME280;64592;52.168;21.040;2023-03-23T14:23:31;99479.44;;;17.25;45.04
75913;BME280;64592;52.168;21.040;2023-03-23T14:28:37;99449.41;;;17.11;46.02
75913;BME280;64592;52.168;21.040;2023-03-23T14:33:41;99462.16;;;17.10;46.19
75913;BME280;64592;52.168;21.040;2023-03-23T14:38:43;99467.94;;;17.07;46.78
75913;BME280;64592;52.168;21.040;2023-03-23T14:43:45;99460.00;;;16.97;46.83
75913;BME280;64592;52.168;21.040;2023-03-23T14:48:48;99462.59;;;16.91;47.15
75913;BME280;64592;52.168;21.040;2023-03-23T14:53:52;99488.66;;;16.85;48.04
75913;BME280;64592;52.168;21.040;2023-03-23T14:59:02;99503.16;;;16.78;48.45
75913;BME280;64592;52.168;21.040;2023-03-23T15:04:08;99491.13;;;16.64;48.64
75913;BME280;64592;52.168;21.040;2023-03-23T15:09:13;99493.16;;;16.54;49.07
75913;BME280;64592;52.168;21.040;2023-03-23T15:14:17;99492.16;;;16.47;49.27
75913;BME280;64592;52.168;21.040;2023-03-23T15:19:25;99489.47;;;16.39;49.86
75913;BME280;64592;52.168;21.040;2023-03-23T15:24:32;99492.22;;;16.30;49.99
75913;BME280;64592;52.168;21.040;2023-03-23T15:29:46;99500.22;;;16.24;51.11
75913;BME280;64592;52.168;21.040;2023-03-23T15:34:49;99498.34;;;16.16;51.08
75913;BME280;64592;52.168;21.040;2023-03-23T15:39:51;99498.03;;;16.11;51.98
75913;BME280;64592;52.168;21.040;2023-03-23T15:45:24;99512.31;;;16.05;52.24
75913;BME280;64592;52.168;21.040;2023-03-23T15:50:34;99511.81;;;16.02;52.30
75913;BME280;64592;52.168;21.040;2023-03-23T15:55:37;99512.00;;;15.92;52.89
75913;BME280;64592;52.168;21.040;2023-03-23T16:00:40;99515.22;;;15.87;52.68
75913;BME280;64592;52.168;21.040;2023-03-23T16:05:44;99525.59;;;15.84;52.90
75913;BME280;64592;52.168;21.040;2023-03-23T16:10:47;99528.31;;;15.76;53.55
75913;BME280;64592;52.168;21.040;2023-03-23T16:15:49;99538.50;;;15.74;53.40
75913;BME280;64592;52.168;21.040;2023-03-23T16:20:52;99546.16;;;15.70;53.34
75913;BME280;64592;52.168;21.040;2023-03-23T16:25:54;99548.00;;;15.62;53.50
75913;BME280;64592;52.168;21.040;2023-03-23T16:30:55;99552.06;;;15.58;54.06
75913;BME280;64592;52.168;21.040;2023-03-23T16:35:58;99567.63;;;15.47;54.52
75913;BME280;64592;52.168;21.040;2023-03-23T16:41:00;99553.34;;;15.37;55.92
75913;BME280;64592;52.168;21.040;2023-03-23T16:46:03;99565.69;;;15.24;56.74
75913;BME280;64592;52.168;21.040;2023-03-23T16:51:06;99558.38;;;15.16;57.51
75913;BME280;64592;52.168;21.040;2023-03-23T16:56:08;99570.91;;;15.09;57.31
75913;BME280;64592;52.168;21.040;2023-03-23T17:01:10;99568.84;;;15.03;57.18
75913;BME280;64592;52.168;21.040;2023-03-23T17:06:14;99574.91;;;14.97;58.02
75913;BME280;64592;52.168;21.040;2023-03-23T17:11:16;99588.13;;;14.92;58.02
75913;BME280;64592;52.168;21.040;2023-03-23T17:16:17;99577.06;;;14.85;58.11
75913;BME280;64592;52.168;21.040;2023-03-23T17:21:20;99570.59;;;14.78;58.56
75913;BME280;64592;52.168;21.040;2023-03-23T17:26:24;99575.50;;;14.74;59.06
75913;BME280;64592;52.168;21.040;2023-03-23T17:31:26;99590.41;;;14.70;59.51
75913;BME280;64592;52.168;21.040;2023-03-23T17:36:29;99586.63;;;14.63;59.93
75913;BME280;64592;52.168;21.040;2023-03-23T17:41:31;99582.53;;;14.59;60.08
75913;BME280;64592;52.168;21.040;2023-03-23T17:46:33;99594.72;;;14.55;60.67
75913;BME280;64592;52.168;21.040;2023-03-23T17:51:36;99615.91;;;14.52;60.35
75913;BME280;64592;52.168;21.040;2023-03-23T17:56:38;99618.22;;;14.47;60.77
75913;BME280;64592;52.168;21.040;2023-03-23T18:01:41;99637.97;;;14.39;61.54
75913;BME280;64592;52.168;21.040;2023-03-23T18:06:44;99641.31;;;14.33;61.89
75913;BME280;64592;52.168;21.040;2023-03-23T18:11:46;99646.00;;;14.31;61.92
75913;BME280;64592;52.168;21.040;2023-03-23T18:16:48;99645.34;;;14.29;62.36
75913;BME280;64592;52.168;21.040;2023-03-23T18:21:51;99646.34;;;14.28;62.39
75913;BME280;64592;52.168;21.040;2023-03-23T18:26:53;99639.53;;;14.24;62.12
75913;BME280;64592;52.168;21.040;2023-03-23T18:31:56;99639.00;;;14.20;62.58
75913;BME280;64592;52.168;21.040;2023-03-23T18:36:59;99633.88;;;14.17;62.35
75913;BME280;64592;52.168;21.040;2023-03-23T18:42:00;99646.44;;;14.18;62.25
75913;BME280;64592;52.168;21.040;2023-03-23T18:47:02;99645.06;;;14.14;62.18
75913;BME280;64592;52.168;21.040;2023-03-23T18:52:06;99648.06;;;14.11;61.85
75913;BME280;64592;52.168;21.040;2023-03-23T18:57:07;99642.50;;;14.13;61.30
75913;BME280;64592;52.168;21.040;2023-03-23T19:02:09;99641.50;;;14.14;60.48
75913;BME280;64592;52.168;21.040;2023-03-23T19:07:15;99632.66;;;14.12;60.19
75913;BME280;64592;52.168;21.040;2023-03-23T19:12:18;99637.94;;;14.13;59.35
75913;BME280;64592;52.168;21.040;2023-03-23T19:17:21;99635.22;;;14.13;59.34
75913;BME280;64592;52.168;21.040;2023-03-23T19:22:25;99636.06;;;14.14;58.89
75913;BME280;64592;52.168;21.040;2023-03-23T19:27:27;99649.47;;;14.15;57.94
75913;BME280;64592;52.168;21.040;2023-03-23T19:32:29;99659.28;;;14.16;57.78
75913;BME280;64592;52.168;21.040;2023-03-23T19:37:32;99658.44;;;14.16;57.64
75913;BME280;64592;52.168;21.040;2023-03-23T19:42:34;99663.69;;;14.17;57.43
75913;BME280;64592;52.168;21.040;2023-03-23T19:47:35;99645.91;;;14.15;58.40
75913;BME280;64592;52.168;21.040;2023-03-23T19:52:38;99654.19;;;14.13;59.95
75913;BME280;64592;52.168;21.040;2023-03-23T19:57:40;99632.09;;;14.08;60.77
75913;BME280;64592;52.168;21.040;2023-03-23T20:02:43;99629.88;;;14.04;60.30
75913;BME280;64592;52.168;21.040;2023-03-23T20:07:47;99633.72;;;14.01;60.88
75913;BME280;64592;52.168;21.040;2023-03-23T20:12:48;99612.00;;;13.93;60.99
75913;BME280;64592;52.168;21.040;2023-03-23T20:17:50;99635.13;;;13.87;61.57
75913;BME280;64592;52.168;21.040;2023-03-23T20:22:53;99641.72;;;13.85;62.65
75913;BME280;64592;52.168;21.040;2023-03-23T20:27:55;99640.78;;;13.76;64.37
75913;BME280;64592;52.168;21.040;2023-03-23T20:32:57;99634.13;;;13.71;65.61
75913;BME280;64592;52.168;21.040;2023-03-23T20:38:01;99632.19;;;13.63;66.56
75913;BME280;64592;52.168;21.040;2023-03-23T20:43:02;99619.22;;;13.57;67.26
75913;BME280;64592;52.168;21.040;2023-03-23T20:48:04;99615.44;;;13.50;67.86
75913;BME280;64592;52.168;21.040;2023-03-23T20:53:08;99623.16;;;13.45;68.25
75913;BME280;64592;52.168;21.040;2023-03-23T20:58:10;99626.16;;;13.42;68.36
75913;BME280;64592;52.168;21.040;2023-03-23T21:03:13;99621.94;;;13.39;68.55
75913;BME280;64592;52.168;21.040;2023-03-23T21:08:17;99624.22;;;13.34;68.78
75913;BME280;64592;52.168;21.040;2023-03-23T21:13:19;99613.63;;;13.23;68.94
75913;BME280;64592;52.168;21.040;2023-03-23T21:18:21;99630.38;;;13.27;69.23
75913;BME280;64592;52.168;21.040;2023-03-23T21:23:24;99621.28;;;13.28;68.89
75913;BME280;64592;52.168;21.040;2023-03-23T21:28:26;99626.00;;;13.26;68.90
75913;BME280;64592;52.168;21.040;2023-03-23T21:33:28;99630.72;;;13.24;68.82
75913;BME280;64592;52.168;21.040;2023-03-23T21:38:32;99628.84;;;13.24;69.03
75913;BME280;64592;52.168;21.040;2023-03-23T21:43:34;99623.59;;;13.23;68.58
75913;BME280;64592;52.168;21.040;2023-03-23T21:48:36;99622.88;;;13.20;68.98
75913;BME280;64592;52.168;21.040;2023-03-23T21:53:42;99630.16;;;13.20;68.94
75913;BME280;64592;52.168;21.040;2023-03-23T21:58:46;99629.47;;;13.18;68.90
75913;BME280;64592;52.168;21.040;2023-03-23T22:03:48;99645.84;;;13.16;68.91
75913;BME280;64592;52.168;21.040;2023-03-23T22:08:52;99638.97;;;13.12;69.22
75913;BME280;64592;52.168;21.040;2023-03-23T22:13:55;99644.84;;;13.08;69.38
75913;BME280;64592;52.168;21.040;2023-03-23T22:18:57;99653.56;;;13.02;69.36
75913;BME280;64592;52.168;21.040;2023-03-23T22:24:02;99651.28;;;12.97;69.28
75913;BME280;64592;52.168;21.040;2023-03-23T22:29:05;99655.31;;;12.93;69.47
75913;BME280;64592;52.168;21.040;2023-03-23T22:34:10;99662.03;;;12.89;69.27
75913;BME280;64592;52.168;21.040;2023-03-23T22:39:13;99663.31;;;12.85;69.48
75913;BME280;64592;52.168;21.040;2023-03-23T22:44:16;99666.47;;;12.80;69.21
75913;BME280;64592;52.168;21.040;2023-03-23T22:49:18;99658.50;;;12.79;68.89
75913;BME280;64592;52.168;21.040;2023-03-23T22:54:21;99672.16;;;12.77;68.88
75913;BME280;64592;52.168;21.040;2023-03-23T22:59:23;99666.75;;;12.77;68.63
75913;BME280;64592;52.168;21.040;2023-03-23T23:04:25;99667.88;;;12.75;68.07
75913;BME280;64592;52.168;21.040;2023-03-23T23:09:28;99673.47;;;12.73;68.03
75913;BME280;64592;52.168;21.040;2023-03-23T23:14:30;99669.91;;;12.73;67.55
75913;BME280;64592;52.168;21.040;2023-03-23T23:19:31;99666.47;;;12.71;67.20
75913;BME280;64592;52.168;21.040;2023-03-23T23:24:35;99664.50;;;12.73;66.96
75913;BME280;64592;52.168;21.040;2023-03-23T23:29:37;99669.59;;;12.76;66.55
75913;BME280;64592;52.168;21.040;2023-03-23T23:34:39;99677.28;;;12.80;66.63
75913;BME280;64592;52.168;21.040;2023-03-23T23:39:42;99675.84;;;12.86;66.30
75913;BME280;64592;52.168;21.040;2023-03-23T23:44:44;99689.22;;;12.88;66.41
75913;BME280;64592;52.168;21.040;2023-03-23T23:49:46;99683.09;;;12.86;66.46
75913;BME280;64592;52.168;21.040;2023-03-23T23:54:49;99696.63;;;12.86;66.87
75913;BME280;64592;52.168;21.040;2023-03-23T23:59:51;99680.66;;;12.82;66.56
